createdAt,value
2022-08-25T00:01:30.415Z,23.20
2022-08-25T00:04:00.355Z,23.19
2022-08-25T00:06:29.570Z,23.15
2022-08-25T00:08:59.657Z,23.13
2022-08-25T00:11:31.234Z,23.07
2022-08-25T00:14:00.870Z,23.02
2022-08-25T00:16:29.996Z,22.95
2022-08-25T00:18:58.684Z,22.82
2022-08-25T00:21:26.853Z,22.77
2022-08-25T00:23:54.502Z,22.74
2022-08-25T00:26:23.564Z,22.62
2022-08-25T00:28:53.416Z,22.48
2022-08-25T00:31:25.234Z,22.29
2022-08-25T00:34:07.424Z,22.23
2022-08-25T00:36:35.932Z,22.21
2022-08-25T00:39:03.619Z,22.18
2022-08-25T00:41:31.253Z,22.20
2022-08-25T00:44:01.248Z,22.19
2022-08-25T00:46:30.345Z,22.18
2022-08-25T00:49:00.174Z,22.03
2022-08-25T00:51:31.705Z,21.84
2022-08-25T00:53:59.493Z,21.74
2022-08-25T00:56:28.257Z,21.68
2022-08-25T00:58:56.015Z,21.57
2022-08-25T01:01:25.000Z,21.54
2022-08-25T01:03:52.813Z,21.57
2022-08-25T01:06:20.471Z,21.57
2022-08-25T01:08:48.469Z,21.54
2022-08-25T01:11:16.272Z,21.56
2022-08-25T01:13:45.844Z,21.61
2022-08-25T01:16:14.516Z,21.52
2022-08-25T01:18:45.535Z,21.51
2022-08-25T01:21:15.344Z,21.61
2022-08-25T01:23:43.068Z,21.64
2022-08-25T01:26:13.471Z,21.67
2022-08-25T01:29:01.492Z,21.62
2022-08-25T01:31:30.070Z,21.60
2022-08-25T01:33:58.364Z,21.50
2022-08-25T01:36:28.279Z,21.33
2022-08-25T01:38:56.375Z,21.33
2022-08-25T01:41:31.492Z,21.32
2022-08-25T01:43:59.409Z,21.27
2022-08-25T01:46:27.144Z,21.23
2022-08-25T01:48:54.893Z,21.18
2022-08-25T01:51:24.820Z,21.23
2022-08-25T01:53:53.810Z,21.25
2022-08-25T01:56:21.522Z,21.23
2022-08-25T01:58:49.898Z,21.22
2022-08-25T02:01:18.997Z,21.22
2022-08-25T02:03:48.013Z,21.20
2022-08-25T02:06:16.279Z,21.16
2022-08-25T02:08:44.344Z,20.97
2022-08-25T02:11:13.603Z,20.93
2022-08-25T02:13:41.779Z,20.92
2022-08-25T02:16:10.855Z,20.96
2022-08-25T02:18:38.605Z,20.91
2022-08-25T02:21:06.333Z,20.87
2022-08-25T02:23:33.962Z,20.85
2022-08-25T02:26:02.072Z,20.77
2022-08-25T02:28:31.055Z,20.75
2022-08-25T02:31:01.583Z,20.70
2022-08-25T02:33:29.948Z,20.57
2022-08-25T02:35:58.459Z,20.45
2022-08-25T02:38:27.908Z,20.41
2022-08-25T02:40:55.681Z,20.43
2022-08-25T02:43:23.342Z,20.44
2022-08-25T02:45:52.312Z,20.48
2022-08-25T02:48:20.063Z,20.49
2022-08-25T02:50:48.268Z,20.41
2022-08-25T02:53:15.956Z,20.20
2022-08-25T02:55:43.566Z,20.11
2022-08-25T02:58:11.420Z,20.08
2022-08-25T03:00:39.024Z,20.05
2022-08-25T03:03:09.424Z,20.02
2022-08-25T03:05:37.057Z,20.05
2022-08-25T03:08:05.438Z,20.12
2022-08-25T03:10:33.164Z,20.18
2022-08-25T03:13:00.815Z,20.11
2022-08-25T03:15:30.569Z,20.02
2022-08-25T03:18:03.505Z,19.95
2022-08-25T03:20:33.347Z,20.00
2022-08-25T03:23:01.015Z,19.97
2022-08-25T03:25:46.355Z,19.96
2022-08-25T03:28:14.733Z,19.91
2022-08-25T03:30:42.727Z,19.89
2022-08-25T03:33:10.499Z,19.90
2022-08-25T03:35:40.614Z,19.96
2022-08-25T03:38:08.266Z,19.92
2022-08-25T03:40:36.020Z,19.92
2022-08-25T03:43:03.881Z,19.88
2022-08-25T03:45:31.630Z,19.83
2022-08-25T03:47:59.332Z,19.81
2022-08-25T03:50:27.310Z,19.83
2022-08-25T03:52:57.391Z,19.82
2022-08-25T03:55:26.123Z,19.73
2022-08-25T03:57:54.433Z,19.67
2022-08-25T04:00:23.532Z,19.59
2022-08-25T04:02:51.309Z,19.59
2022-08-25T04:05:20.262Z,19.56
2022-08-25T04:07:47.892Z,19.51
2022-08-25T04:10:16.843Z,19.48
2022-08-25T04:12:44.480Z,19.47
2022-08-25T04:15:12.375Z,19.43
2022-08-25T04:17:40.735Z,19.40
2022-08-25T04:20:09.391Z,19.30
2022-08-25T04:22:38.270Z,19.28
2022-08-25T04:25:06.945Z,19.28
2022-08-25T04:27:37.514Z,19.26
2022-08-25T04:30:06.283Z,19.26
2022-08-25T04:32:33.945Z,19.18
2022-08-25T04:35:01.566Z,19.21
2022-08-25T04:37:29.190Z,19.17
2022-08-25T04:39:56.828Z,19.13
2022-08-25T04:42:26.317Z,19.16
2022-08-25T04:44:55.822Z,19.16
2022-08-25T04:47:23.762Z,19.19
2022-08-25T04:49:51.426Z,19.20
2022-08-25T04:52:19.096Z,19.22
2022-08-25T04:54:47.587Z,19.15
2022-08-25T04:57:15.189Z,19.15
2022-08-25T04:59:42.806Z,19.16
2022-08-25T05:02:11.817Z,19.15
2022-08-25T05:04:39.887Z,19.15
2022-08-25T05:07:07.582Z,19.15
2022-08-25T05:09:35.502Z,19.16
2022-08-25T05:12:03.672Z,19.13
2022-08-25T05:14:31.554Z,19.18
2022-08-25T05:16:59.744Z,19.23
2022-08-25T05:19:28.732Z,19.31
2022-08-25T05:21:57.962Z,19.55
2022-08-25T05:24:26.180Z,19.67
2022-08-25T05:26:54.175Z,19.96
2022-08-25T05:29:22.089Z,20.24
2022-08-25T05:31:50.992Z,20.31
2022-08-25T05:34:19.501Z,20.64
2022-08-25T05:36:48.659Z,20.63
2022-08-25T05:39:16.339Z,20.77
2022-08-25T05:41:43.986Z,21.09
2022-08-25T05:44:12.686Z,21.32
2022-08-25T05:46:40.352Z,21.64
2022-08-25T05:49:08.045Z,21.72
2022-08-25T05:51:35.659Z,21.87
2022-08-25T05:54:05.343Z,21.82
2022-08-25T05:56:33.032Z,22.05
2022-08-25T05:59:00.715Z,22.29
2022-08-25T06:01:46.695Z,22.69
2022-08-25T06:04:14.859Z,22.98
2022-08-25T06:06:42.636Z,22.75
2022-08-25T06:09:11.749Z,22.65
2022-08-25T06:11:40.554Z,22.81
2022-08-25T06:14:08.734Z,23.14
2022-08-25T06:16:36.770Z,23.09
2022-08-25T06:19:04.705Z,23.31
2022-08-25T06:21:32.380Z,23.45
2022-08-25T06:23:59.964Z,23.67
2022-08-25T06:26:28.981Z,23.53
2022-08-25T06:28:56.612Z,23.57
2022-08-25T06:31:24.888Z,23.87
2022-08-25T06:33:52.899Z,23.82
2022-08-25T06:36:21.119Z,24.10
2022-08-25T06:38:49.115Z,24.53
2022-08-25T06:41:17.150Z,24.65
2022-08-25T06:43:49.795Z,24.76
2022-08-25T06:46:19.567Z,25.13
2022-08-25T06:48:47.654Z,25.75
2022-08-25T06:51:16.279Z,25.82
2022-08-25T06:53:44.431Z,25.76
2022-08-25T06:56:12.329Z,25.90
2022-08-25T06:58:40.229Z,26.10
2022-08-25T07:01:14.965Z,25.84
2022-08-25T07:03:47.681Z,26.06
2022-08-25T07:06:18.316Z,26.44
2022-08-25T07:08:46.638Z,26.02
2022-08-25T07:11:16.590Z,26.02
2022-08-25T07:13:45.415Z,25.70
2022-08-25T07:16:15.353Z,26.36
2022-08-25T07:18:43.140Z,26.95
2022-08-25T07:21:12.375Z,27.02
2022-08-25T07:23:40.330Z,26.83
2022-08-25T07:26:27.146Z,27.02
2022-08-25T07:28:58.514Z,27.10
2022-08-25T07:34:32.916Z,27.57
2022-08-25T07:37:04.369Z,27.31
2022-08-25T07:39:33.726Z,28.46
2022-08-25T07:42:01.547Z,28.53
2022-08-25T07:44:29.741Z,28.70
2022-08-25T07:46:59.190Z,28.78
2022-08-25T07:49:36.005Z,28.70
2022-08-25T07:52:07.588Z,29.14
2022-08-25T07:54:38.175Z,29.88
2022-08-25T07:57:07.675Z,29.97
2022-08-25T07:59:39.231Z,30.10
2022-08-25T08:02:09.170Z,30.12
2022-08-25T08:04:48.364Z,30.68
2022-08-25T08:07:17.442Z,30.82
2022-08-25T08:09:45.077Z,30.91
2022-08-25T08:12:15.216Z,30.59
2022-08-25T08:14:45.012Z,30.36
2022-08-25T08:17:15.227Z,30.28
2022-08-25T08:19:45.315Z,31.15
2022-08-25T08:22:15.556Z,31.22
2022-08-25T08:24:53.991Z,30.63
2022-08-25T08:27:23.942Z,30.91
2022-08-25T08:29:52.256Z,31.74
2022-08-25T08:32:25.198Z,31.41
2022-08-25T08:35:03.334Z,32.13
2022-08-25T08:37:31.393Z,31.89
2022-08-25T08:40:01.543Z,32.11
2022-08-25T08:42:47.190Z,32.46
2022-08-25T08:45:23.238Z,32.23
2022-08-25T08:48:00.164Z,32.37
2022-08-25T08:50:33.606Z,32.36
2022-08-25T08:53:04.985Z,32.23
2022-08-25T08:55:34.385Z,32.72
2022-08-25T08:58:03.931Z,33.77
2022-08-25T09:00:33.390Z,32.39
2022-08-25T09:03:06.353Z,32.60
2022-08-25T09:05:42.800Z,32.67
2022-08-25T09:08:13.777Z,32.70
2022-08-25T09:10:55.029Z,32.30
2022-08-25T09:13:29.042Z,32.52
2022-08-25T09:16:34.101Z,32.20
2022-08-25T09:19:11.821Z,32.82
2022-08-25T09:21:53.093Z,32.55
2022-08-25T09:24:27.723Z,33.07
2022-08-25T09:27:03.594Z,32.43
2022-08-25T09:29:47.235Z,32.00
2022-08-25T09:32:15.377Z,32.81
2022-08-25T09:34:53.583Z,33.29
2022-08-25T09:37:22.216Z,33.72
2022-08-25T09:39:49.852Z,33.84
2022-08-25T09:42:23.665Z,33.64
2022-08-25T09:44:51.982Z,34.14
2022-08-25T09:47:24.130Z,33.61
2022-08-25T09:49:58.308Z,33.64
2022-08-25T09:52:31.830Z,34.08
2022-08-25T09:55:00.845Z,34.78
2022-08-25T09:57:34.679Z,34.29
2022-08-25T10:00:16.085Z,34.63
2022-08-25T10:02:44.007Z,34.96
2022-08-25T10:05:23.266Z,34.67
2022-08-25T10:07:53.075Z,35.41
2022-08-25T10:10:24.764Z,34.87
2022-08-25T10:12:52.481Z,35.10
2022-08-25T10:15:29.714Z,36.19
2022-08-25T10:17:59.918Z,35.85
2022-08-25T10:20:35.224Z,35.88
2022-08-25T10:23:11.749Z,36.88
2022-08-25T10:25:42.758Z,36.72
2022-08-25T10:28:29.820Z,37.05
2022-08-25T10:31:04.394Z,38.68
2022-08-25T10:33:43.234Z,36.38
2022-08-25T10:36:16.995Z,36.21
2022-08-25T10:38:51.565Z,36.37
2022-08-25T10:41:26.798Z,35.71
2022-08-25T10:43:59.604Z,36.00
2022-08-25T10:48:19.899Z,36.18
2022-08-25T10:53:54.956Z,37.46
2022-08-25T10:56:25.730Z,36.63
2022-08-25T10:59:12.502Z,36.61
2022-08-25T11:01:45.088Z,35.98
2022-08-25T11:04:16.645Z,36.67
2022-08-25T11:06:53.117Z,37.96
2022-08-25T11:09:26.465Z,37.85
2022-08-25T11:11:56.530Z,36.85
2022-08-25T11:14:32.638Z,37.83
2022-08-25T11:17:05.870Z,36.46
2022-08-25T11:19:36.798Z,36.21
2022-08-25T11:22:08.435Z,36.71
2022-08-25T11:24:48.188Z,37.73
2022-08-25T11:27:18.234Z,38.78
2022-08-25T11:29:54.495Z,38.67
2022-08-25T11:32:23.137Z,38.00
2022-08-25T11:34:50.909Z,37.90
2022-08-25T11:37:23.053Z,38.07
2022-08-25T11:40:08.804Z,37.12
2022-08-25T11:42:45.481Z,36.89
2022-08-25T11:45:33.794Z,36.20
2022-08-25T11:48:10.437Z,36.77
2022-08-25T11:50:55.298Z,35.79
2022-08-25T11:53:28.114Z,38.24
2022-08-25T11:56:02.432Z,37.38
2022-08-25T11:58:35.485Z,39.03
2022-08-25T12:01:05.443Z,39.08
2022-08-25T12:03:48.000Z,38.35
2022-08-25T12:06:24.982Z,39.39
2022-08-25T12:08:57.555Z,39.67
2022-08-25T12:11:45.979Z,40.28
2022-08-25T12:14:18.489Z,36.93
2022-08-25T12:17:01.343Z,36.87
2022-08-25T12:19:31.008Z,38.76
2022-08-25T12:22:19.573Z,37.16
2022-08-25T12:24:51.911Z,36.61
2022-08-25T12:27:28.157Z,37.09
2022-08-25T12:30:00.240Z,37.68
2022-08-25T12:32:37.267Z,38.17
2022-08-25T12:35:14.597Z,39.07
2022-08-25T12:37:55.543Z,37.71
2022-08-25T12:40:25.669Z,38.18
2022-08-25T12:43:03.157Z,39.13
2022-08-25T12:45:35.722Z,36.99
2022-08-25T12:48:22.127Z,36.76
2022-08-25T12:50:57.751Z,36.10
2022-08-25T12:53:31.536Z,35.60
2022-08-25T12:56:02.602Z,36.83
2022-08-25T12:58:58.533Z,37.93
2022-08-25T13:01:36.198Z,37.79
2022-08-25T13:04:25.056Z,36.68
2022-08-25T13:07:04.192Z,36.85
2022-08-25T13:09:49.997Z,36.53
2022-08-25T13:12:20.068Z,38.49
2022-08-25T13:14:53.504Z,37.65
2022-08-25T13:17:26.797Z,38.01
2022-08-25T13:20:09.321Z,37.08
2022-08-25T13:22:38.174Z,36.83
2022-08-25T13:25:06.262Z,36.89
2022-08-25T13:27:35.649Z,36.69
2022-08-25T13:30:05.995Z,36.28
2022-08-25T13:32:38.903Z,36.89
2022-08-25T13:35:17.545Z,37.20
2022-08-25T13:37:46.913Z,38.08
2022-08-25T13:40:17.807Z,38.79
2022-08-25T13:42:52.966Z,39.36
2022-08-25T13:45:24.640Z,36.53
2022-08-25T13:47:55.830Z,36.98
2022-08-25T13:50:32.003Z,36.96
2022-08-25T13:53:01.098Z,36.31
2022-08-25T13:55:50.449Z,37.37
2022-08-25T13:58:24.210Z,36.70
2022-08-25T14:01:19.748Z,36.10
2022-08-25T14:03:52.584Z,36.30
2022-08-25T14:06:23.635Z,35.46
2022-08-25T14:09:05.896Z,36.21
2022-08-25T14:11:34.366Z,36.63
2022-08-25T14:14:03.104Z,37.09
2022-08-25T14:16:38.438Z,36.23
2022-08-25T14:19:19.879Z,36.58
2022-08-25T14:21:49.635Z,36.46
2022-08-25T14:24:22.559Z,35.38
2022-08-25T14:26:54.284Z,35.66
2022-08-25T14:29:22.588Z,35.71
2022-08-25T14:31:52.446Z,34.65
2022-08-25T14:34:22.056Z,35.22
2022-08-25T14:36:51.902Z,34.96
2022-08-25T14:39:20.298Z,34.63
2022-08-25T14:41:53.209Z,34.86
2022-08-25T14:44:21.929Z,34.80
2022-08-25T14:46:52.971Z,34.08
2022-08-25T14:49:24.947Z,34.25
2022-08-25T14:51:53.286Z,33.80
2022-08-25T14:54:23.587Z,33.41
2022-08-25T14:56:51.451Z,33.35
2022-08-25T14:59:19.264Z,33.68
2022-08-25T15:01:47.104Z,33.94
2022-08-25T15:04:20.521Z,34.25
2022-08-25T15:06:51.490Z,34.43
2022-08-25T15:09:18.664Z,34.23
2022-08-25T15:11:48.251Z,33.90
2022-08-25T15:14:19.389Z,33.80
2022-08-25T15:16:57.647Z,33.15
2022-08-25T15:19:28.359Z,33.49
2022-08-25T15:21:58.241Z,33.58
2022-08-25T15:24:27.562Z,33.31
2022-08-25T15:26:56.642Z,33.07
2022-08-25T15:29:27.233Z,33.19
2022-08-25T15:31:55.009Z,33.29
2022-08-25T15:34:22.693Z,33.31
2022-08-25T15:36:51.801Z,33.44
2022-08-25T15:39:19.820Z,33.40
2022-08-25T15:41:49.470Z,33.29
2022-08-25T15:44:17.328Z,33.11
2022-08-25T15:46:49.688Z,32.78
2022-08-25T15:49:20.598Z,32.76
2022-08-25T15:51:54.316Z,32.84
2022-08-25T15:54:22.674Z,32.89
2022-08-25T15:56:50.552Z,33.24
2022-08-25T15:59:19.672Z,33.22
2022-08-25T16:01:53.456Z,33.20
2022-08-25T16:04:21.849Z,33.33
2022-08-25T16:06:51.841Z,33.46
2022-08-25T16:09:22.919Z,33.50
2022-08-25T16:11:56.587Z,33.45
2022-08-25T16:14:25.728Z,33.37
2022-08-25T16:16:53.424Z,33.19
2022-08-25T16:19:26.283Z,32.92
2022-08-25T16:21:53.936Z,33.00
2022-08-25T16:24:22.920Z,32.78
2022-08-25T16:26:51.836Z,32.76
2022-08-25T16:29:20.148Z,32.61
2022-08-25T16:31:52.945Z,32.59
2022-08-25T16:34:22.179Z,32.52
2022-08-25T16:36:52.316Z,32.72
2022-08-25T16:39:20.604Z,32.85
2022-08-25T16:41:50.126Z,32.65
2022-08-25T16:44:19.692Z,32.47
2022-08-25T16:46:54.278Z,32.44
2022-08-25T16:49:24.363Z,32.55
2022-08-25T16:51:54.374Z,32.55
2022-08-25T16:54:43.325Z,32.47
2022-08-25T16:57:12.327Z,32.17
2022-08-25T16:59:39.993Z,32.17
2022-08-25T17:02:08.400Z,32.19
2022-08-25T17:04:36.009Z,32.24
2022-08-25T17:07:05.166Z,32.25
2022-08-25T17:09:32.795Z,32.05
2022-08-25T17:12:00.382Z,32.00
2022-08-25T17:14:29.397Z,31.84
2022-08-25T17:16:57.151Z,31.95
2022-08-25T17:19:25.858Z,31.73
2022-08-25T17:21:54.507Z,31.87
2022-08-25T17:24:29.421Z,31.82
2022-08-25T17:27:00.096Z,31.73
2022-08-25T17:29:30.671Z,31.66
2022-08-25T17:31:58.593Z,31.68
2022-08-25T17:34:27.031Z,31.56
2022-08-25T17:36:55.884Z,31.46
2022-08-25T17:39:23.743Z,31.56
2022-08-25T17:41:51.715Z,31.55
2022-08-25T17:44:19.599Z,31.45
2022-08-25T17:46:48.934Z,31.34
2022-08-25T17:49:17.021Z,31.32
2022-08-25T17:51:45.244Z,31.23
2022-08-25T17:54:13.080Z,31.29
2022-08-25T17:56:40.857Z,31.23
2022-08-25T17:59:08.742Z,31.16
2022-08-25T18:01:40.588Z,31.18
2022-08-25T18:04:17.303Z,31.22
2022-08-25T18:06:46.429Z,31.22
2022-08-25T18:09:14.412Z,31.16
2022-08-25T18:11:42.883Z,31.02
2022-08-25T18:14:11.219Z,31.04
2022-08-25T18:16:40.197Z,31.03
2022-08-25T18:19:09.561Z,30.93
2022-08-25T18:21:38.981Z,30.87
2022-08-25T18:24:06.987Z,30.82
2022-08-25T18:26:34.623Z,30.75
2022-08-25T18:29:02.471Z,30.57
2022-08-25T18:31:30.193Z,30.50
2022-08-25T18:33:58.078Z,30.44
2022-08-25T18:36:25.725Z,30.28
2022-08-25T18:39:13.464Z,30.05
2022-08-25T18:41:42.380Z,29.85
2022-08-25T18:44:10.939Z,29.77
2022-08-25T18:46:39.757Z,29.80
2022-08-25T18:49:07.485Z,29.81
2022-08-25T18:51:36.193Z,29.78
2022-08-25T18:54:05.748Z,29.71
2022-08-25T18:56:34.378Z,29.66
2022-08-25T18:59:03.127Z,29.53
2022-08-25T19:01:31.143Z,29.38
2022-08-25T19:03:58.892Z,29.18
2022-08-25T19:06:27.166Z,29.13
2022-08-25T19:08:54.824Z,29.06
2022-08-25T19:11:23.844Z,29.14
2022-08-25T19:13:52.045Z,29.22
2022-08-25T19:16:30.788Z,29.22
2022-08-25T19:18:58.589Z,29.17
2022-08-25T19:21:26.586Z,29.11
2022-08-25T19:23:54.164Z,29.05
2022-08-25T19:26:22.088Z,28.93
2022-08-25T19:28:52.648Z,28.86
2022-08-25T19:31:21.349Z,28.74
2022-08-25T19:33:49.303Z,28.63
2022-08-25T19:36:17.646Z,28.53
2022-08-25T19:38:49.236Z,28.47
2022-08-25T19:41:19.916Z,28.41
2022-08-25T19:43:50.486Z,28.29
2022-08-25T19:46:25.386Z,28.21
2022-08-25T19:48:53.046Z,28.14
2022-08-25T19:51:21.742Z,27.99
2022-08-25T19:53:54.316Z,27.69
2022-08-25T19:56:23.614Z,27.62
2022-08-25T19:58:51.618Z,27.57
2022-08-25T20:01:19.660Z,27.43
2022-08-25T20:03:48.797Z,27.34
2022-08-25T20:06:16.405Z,27.31
2022-08-25T20:08:44.066Z,27.27
2022-08-25T20:11:11.816Z,27.26
2022-08-25T20:13:39.457Z,27.05
2022-08-25T20:16:07.602Z,26.93
2022-08-25T20:18:36.277Z,26.83
2022-08-25T20:21:06.128Z,26.90
2022-08-25T20:23:51.116Z,26.92
2022-08-25T20:26:18.756Z,26.84
2022-08-25T20:28:46.447Z,26.70
2022-08-25T20:31:14.224Z,26.68
2022-08-25T20:33:41.992Z,26.61
2022-08-25T20:36:14.714Z,26.57
2022-08-25T20:38:44.619Z,26.39
2022-08-25T20:41:12.748Z,26.35
2022-08-25T20:43:40.624Z,26.30
2022-08-25T20:46:09.525Z,26.37
2022-08-25T20:48:38.275Z,26.19
2022-08-25T20:51:07.046Z,26.24
2022-08-25T20:53:37.410Z,26.15
2022-08-25T20:56:08.033Z,26.08
2022-08-25T20:58:36.796Z,25.93
2022-08-25T21:01:04.570Z,25.88
2022-08-25T21:03:37.227Z,25.83
2022-08-25T21:06:07.356Z,25.67
2022-08-25T21:08:36.625Z,25.61
2022-08-25T21:11:13.323Z,25.60
2022-08-25T21:13:41.838Z,25.57
2022-08-25T21:16:10.339Z,25.61
2022-08-25T21:18:39.139Z,25.58
2022-08-25T21:21:15.064Z,25.44
2022-08-25T21:23:48.529Z,25.36
2022-08-25T21:26:17.272Z,25.27
2022-08-25T21:28:47.519Z,25.15
2022-08-25T21:31:16.156Z,25.09
2022-08-25T21:33:45.489Z,25.00
2022-08-25T21:36:14.452Z,24.90
2022-08-25T21:38:42.556Z,24.90
2022-08-25T21:41:15.427Z,24.86
2022-08-25T21:43:44.868Z,24.84
2022-08-25T21:46:17.395Z,24.89
2022-08-25T21:48:46.575Z,24.88
2022-08-25T21:51:15.350Z,24.80
2022-08-25T21:53:43.316Z,24.77
2022-08-25T21:56:12.177Z,24.67
2022-08-25T21:58:41.176Z,24.60
2022-08-25T22:01:10.952Z,24.63
2022-08-25T22:03:40.942Z,24.62
2022-08-25T22:06:09.721Z,24.44
2022-08-25T22:08:41.302Z,24.49
2022-08-25T22:11:09.375Z,24.52
2022-08-25T22:13:38.169Z,24.47
2022-08-25T22:16:10.332Z,24.42
2022-08-25T22:18:38.009Z,24.33
2022-08-25T22:21:06.218Z,24.30
2022-08-25T22:23:44.055Z,24.28
2022-08-25T22:26:13.949Z,24.23
2022-08-25T22:28:42.732Z,24.12
2022-08-25T22:31:20.885Z,24.07
2022-08-25T22:33:49.153Z,24.12
2022-08-25T22:36:18.171Z,24.09
2022-08-25T22:38:46.789Z,24.16
2022-08-25T22:41:19.083Z,24.13
2022-08-25T22:43:49.856Z,24.05
2022-08-25T22:46:20.876Z,24.08
2022-08-25T22:48:50.346Z,24.06
2022-08-25T22:51:20.561Z,24.09
2022-08-25T22:53:48.963Z,24.09
2022-08-25T22:56:17.755Z,24.10
2022-08-25T22:58:51.727Z,24.11
2022-08-25T23:01:21.525Z,24.05
2022-08-25T23:03:49.240Z,24.02
2022-08-25T23:06:24.503Z,23.99
2022-08-25T23:08:53.915Z,23.94
2022-08-25T23:11:23.137Z,23.93
2022-08-25T23:13:51.434Z,23.87
2022-08-25T23:16:19.180Z,23.77
2022-08-25T23:18:48.253Z,23.78
2022-08-25T23:21:35.062Z,23.72
2022-08-25T23:24:03.137Z,23.72
2022-08-25T23:26:33.198Z,23.70
2022-08-25T23:29:03.264Z,23.68
2022-08-25T23:31:41.929Z,23.70
2022-08-25T23:34:11.324Z,23.60
2022-08-25T23:36:39.032Z,23.49
2022-08-25T23:39:06.974Z,23.26
2022-08-25T23:41:36.916Z,23.02
2022-08-25T23:44:05.400Z,23.12
2022-08-25T23:46:34.974Z,23.16
2022-08-25T23:49:03.284Z,23.20
2022-08-25T23:51:34.424Z,23.33
2022-08-25T23:54:07.021Z,23.42
2022-08-25T23:56:37.684Z,23.33
2022-08-25T23:59:13.088Z,23.23
